createdAt,value
2018-04-08T00:01:04.919Z,98861.62
2018-04-08T00:03:33.528Z,98857.97
2018-04-08T00:06:02.198Z,98854.53
2018-04-08T00:08:30.944Z,98848.20
2018-04-08T00:10:59.577Z,98863.66
2018-04-08T00:13:28.214Z,98849.89
2018-04-08T00:15:56.946Z,98857.12
2018-04-08T00:18:26.376Z,98851.73
2018-04-08T00:20:55.057Z,98852.04
2018-04-08T00:23:25.377Z,98851.58
2018-04-08T00:25:54.340Z,98854.22
2018-04-08T00:28:23.054Z,98849.64
2018-04-08T00:30:51.594Z,98849.50
2018-04-08T00:33:20.207Z,98847.88
2018-04-08T00:35:48.890Z,98847.01
2018-04-08T00:38:17.585Z,98839.16
2018-04-08T00:40:46.224Z,98842.91
2018-04-08T00:43:14.842Z,98845.95
2018-04-08T00:45:43.458Z,98841.76
2018-04-08T00:48:12.035Z,98844.50
2018-04-08T00:50:40.596Z,98842.64
2018-04-08T00:53:09.226Z,98841.86
2018-04-08T00:55:38.044Z,98842.36
2018-04-08T00:58:07.173Z,98842.53
2018-04-08T01:00:36.752Z,98837.96
2018-04-08T01:03:06.151Z,98838.95
2018-04-08T01:05:35.350Z,98835.08
2018-04-08T01:08:03.960Z,98835.83
2018-04-08T01:10:32.610Z,98839.52
2018-04-08T01:13:01.211Z,98833.53
2018-04-08T01:15:29.822Z,98829.03
2018-04-08T01:17:59.363Z,98823.50
2018-04-08T01:20:27.994Z,98827.16
2018-04-08T01:22:56.644Z,98823.02
2018-04-08T01:25:26.426Z,98826.56
2018-04-08T01:27:55.750Z,98822.23
2018-04-08T01:30:24.788Z,98823.05
2018-04-08T01:32:53.415Z,98818.58
2018-04-08T01:35:22.777Z,98826.46
2018-04-08T01:37:51.461Z,98818.86
2018-04-08T01:40:20.061Z,98814.10
2018-04-08T01:42:48.704Z,98814.10
2018-04-08T01:45:17.385Z,98817.37
2018-04-08T01:47:46.017Z,98818.66
2018-04-08T01:50:14.691Z,98816.22
2018-04-08T01:52:44.081Z,98822.66
2018-04-08T01:55:12.579Z,98817.47
2018-04-08T01:57:42.272Z,98822.52
2018-04-08T02:00:11.616Z,98825.38
2018-04-08T02:02:40.585Z,98820.16
2018-04-08T02:05:09.189Z,98826.03
2018-04-08T02:07:38.674Z,98820.88
2018-04-08T02:10:07.473Z,98814.47
2018-04-08T02:12:36.065Z,98820.37
2018-04-08T02:15:04.672Z,98821.63
2018-04-08T02:17:33.293Z,98826.75
2018-04-08T02:20:01.906Z,98824.89
2018-04-08T02:22:30.554Z,98830.79
2018-04-08T02:24:59.905Z,98833.04
2018-04-08T02:27:28.605Z,98827.09
2018-04-08T02:29:57.307Z,98836.41
2018-04-08T02:32:26.422Z,98832.73
2018-04-08T02:34:55.419Z,98834.56
2018-04-08T02:37:24.773Z,98833.31
2018-04-08T02:39:53.358Z,98827.54
2018-04-08T02:42:21.981Z,98828.04
2018-04-08T02:44:50.554Z,98819.45
2018-04-08T02:47:19.867Z,98825.09
2018-04-08T02:49:48.416Z,98824.66
2018-04-08T02:52:17.104Z,98820.52
2018-04-08T02:54:45.902Z,98818.72
2018-04-08T02:57:14.746Z,98820.83
2018-04-08T02:59:43.314Z,98814.30
2018-04-08T03:02:12.499Z,98815.42
2018-04-08T03:04:41.780Z,98816.20
2018-04-08T03:07:10.456Z,98820.84
2018-04-08T03:09:39.827Z,98816.86
2018-04-08T03:12:08.357Z,98817.59
2018-04-08T03:14:36.916Z,98815.13
2018-04-08T03:17:05.608Z,98813.16
2018-04-08T03:19:34.220Z,98807.33
2018-04-08T03:22:02.810Z,98806.80
2018-04-08T03:24:32.291Z,98808.97
2018-04-08T03:27:00.865Z,98808.58
2018-04-08T03:29:29.588Z,98807.42
2018-04-08T03:31:58.317Z,98810.78
2018-04-08T03:34:27.400Z,98809.42
2018-04-08T03:36:56.943Z,98804.45
2018-04-08T03:39:25.780Z,98807.20
2018-04-08T03:41:54.428Z,98806.06
2018-04-08T03:44:22.974Z,98802.75
2018-04-08T03:46:51.698Z,98804.05
2018-04-08T03:49:20.230Z,98802.64
2018-04-08T03:51:48.871Z,98804.48
2018-04-08T03:54:17.614Z,98803.43
2018-04-08T03:56:46.286Z,98803.73
2018-04-08T03:59:14.934Z,98808.73
2018-04-08T04:01:43.617Z,98807.52
2018-04-08T04:04:12.120Z,98814.25
2018-04-08T04:06:40.846Z,98813.70
2018-04-08T04:09:09.794Z,98813.48
2018-04-08T04:11:39.944Z,98807.08
2018-04-08T04:14:08.580Z,98810.78
2018-04-08T04:16:37.148Z,98817.77
2018-04-08T04:19:24.347Z,98827.09
2018-04-08T04:22:10.681Z,98823.73
2018-04-08T04:28:06.211Z,98811.54
2018-04-08T04:30:34.836Z,98809.69
2018-04-08T04:33:03.523Z,98822.43
2018-04-08T04:35:32.158Z,98815.08
2018-04-08T04:38:00.740Z,98817.85
2018-04-08T04:40:30.157Z,98817.88
2018-04-08T04:42:58.908Z,98815.06
2018-04-08T04:45:27.517Z,98818.33
2018-04-08T04:47:56.101Z,98816.80
2018-04-08T04:50:24.697Z,98819.91
2018-04-08T04:52:54.297Z,98820.47
2018-04-08T04:55:23.201Z,98821.44
2018-04-08T04:57:52.113Z,98819.03
2018-04-08T05:00:20.868Z,98824.86
2018-04-08T05:02:49.578Z,98824.05
2018-04-08T05:05:18.123Z,98823.06
2018-04-08T05:07:47.537Z,98826.73
2018-04-08T05:10:16.802Z,98832.52
2018-04-08T05:12:45.398Z,98836.45
2018-04-08T05:15:14.147Z,98839.47
2018-04-08T05:17:42.771Z,98830.91
2018-04-08T05:20:12.315Z,98832.64
2018-04-08T05:22:40.937Z,98825.03
2018-04-08T05:25:09.590Z,98834.14
2018-04-08T05:27:39.107Z,98832.89
2018-04-08T05:30:08.294Z,98831.48
2018-04-08T05:32:36.868Z,98818.01
2018-04-08T05:35:06.187Z,98821.78
2018-04-08T05:37:34.830Z,98822.34
2018-04-08T05:40:03.582Z,98824.20
2018-04-08T05:42:32.909Z,98821.77
2018-04-08T05:45:01.709Z,98823.95
2018-04-08T05:47:30.326Z,98822.57
2018-04-08T05:50:00.075Z,98825.25
2018-04-08T05:52:29.533Z,98826.61
2018-04-08T05:54:58.092Z,98827.21
2018-04-08T05:57:26.939Z,98834.53
2018-04-08T05:59:56.263Z,98832.98
2018-04-08T06:02:25.283Z,98833.72
2018-04-08T06:04:53.947Z,98823.81
2018-04-08T06:07:23.374Z,98823.27
2018-04-08T06:09:52.942Z,98834.50
2018-04-08T06:12:21.591Z,98822.19
2018-04-08T06:14:50.358Z,98823.48
2018-04-08T06:17:19.222Z,98826.73
2018-04-08T06:19:48.602Z,98832.52
2018-04-08T06:22:17.139Z,98832.59
2018-04-08T06:24:45.886Z,98835.30
2018-04-08T06:27:14.552Z,98834.49
2018-04-08T06:29:43.166Z,98839.94
2018-04-08T06:32:11.742Z,98839.09
2018-04-08T06:34:40.433Z,98834.66
2018-04-08T06:37:09.184Z,98839.18
2018-04-08T06:39:38.609Z,98827.58
2018-04-08T06:42:07.330Z,98832.33
2018-04-08T06:44:36.868Z,98826.86
2018-04-08T06:47:06.639Z,98828.92
2018-04-08T06:49:36.195Z,98825.92
2018-04-08T06:52:06.958Z,98830.83
2018-04-08T06:54:36.994Z,98818.96
2018-04-08T06:57:06.394Z,98822.55
2018-04-08T06:59:35.789Z,98819.33
2018-04-08T07:02:04.405Z,98813.73
2018-04-08T07:04:33.879Z,98815.78
2018-04-08T07:07:03.381Z,98821.88
2018-04-08T07:09:31.920Z,98823.78
2018-04-08T07:12:01.381Z,98813.17
2018-04-08T07:14:30.361Z,98820.85
2018-04-08T07:16:59.779Z,98813.82
2018-04-08T07:19:29.318Z,98819.19
2018-04-08T07:21:58.012Z,98807.06
2018-04-08T07:24:27.445Z,98809.51
2018-04-08T07:26:56.239Z,98814.01
2018-04-08T07:29:26.721Z,98812.52
2018-04-08T07:31:55.485Z,98807.86
2018-04-08T07:34:24.973Z,98806.92
2018-04-08T07:36:53.641Z,98809.87
2018-04-08T07:39:22.344Z,98819.86
2018-04-08T07:41:51.728Z,98820.30
2018-04-08T07:44:21.240Z,98819.94
2018-04-08T07:46:50.781Z,98811.00
2018-04-08T07:49:19.919Z,98804.63
2018-04-08T07:51:49.208Z,98797.10
2018-04-08T07:54:17.948Z,98800.48
2018-04-08T07:56:47.051Z,98799.91
2018-04-08T07:59:15.827Z,98801.39
2018-04-08T08:01:44.461Z,98804.47
2018-04-08T08:04:13.150Z,98804.27
2018-04-08T08:06:41.817Z,98799.61
2018-04-08T08:09:10.529Z,98802.39
2018-04-08T08:11:39.102Z,98808.70
2018-04-08T08:14:07.653Z,98806.45
2018-04-08T08:16:36.852Z,98802.32
2018-04-08T08:19:06.186Z,98805.93
2018-04-08T08:21:34.863Z,98802.02
2018-04-08T08:24:04.411Z,98803.06
2018-04-08T08:26:33.080Z,98806.55
2018-04-08T08:29:02.617Z,98805.07
2018-04-08T08:31:31.276Z,98812.61
2018-04-08T08:33:59.831Z,98807.02
2018-04-08T08:36:29.197Z,98808.68
2018-04-08T08:38:57.835Z,98805.93
2018-04-08T08:41:26.384Z,98804.37
2018-04-08T08:43:55.786Z,98802.22
2018-04-08T08:46:26.919Z,98802.89
2018-04-08T08:48:56.074Z,98793.73
2018-04-08T08:51:25.501Z,98792.50
2018-04-08T08:53:54.363Z,98793.73
2018-04-08T08:56:23.142Z,98790.50
2018-04-08T08:58:52.056Z,98792.80
2018-04-08T09:01:20.863Z,98785.68
2018-04-08T09:03:49.784Z,98780.77
2018-04-08T09:06:18.854Z,98772.65
2018-04-08T09:08:48.647Z,98769.66
2018-04-08T09:11:17.480Z,98774.95
2018-04-08T09:13:46.443Z,98769.42
2018-04-08T09:16:16.498Z,98764.64
2018-04-08T09:18:47.870Z,98760.22
2018-04-08T09:21:28.403Z,98762.52
2018-04-08T09:23:57.867Z,98756.22
2018-04-08T09:26:26.905Z,98759.59
2018-04-08T09:28:56.397Z,98750.52
2018-04-08T09:31:26.424Z,98738.38
2018-04-08T09:33:56.464Z,98743.86
2018-04-08T09:36:25.460Z,98734.85
2018-04-08T09:38:55.407Z,98742.66
2018-04-08T09:41:25.377Z,98735.60
2018-04-08T09:43:54.175Z,98738.39
2018-04-08T09:46:22.874Z,98741.69
2018-04-08T09:48:51.667Z,98735.77
2018-04-08T09:51:20.483Z,98731.84
2018-04-08T09:53:49.186Z,98725.33
2018-04-08T09:56:18.014Z,98724.58
2018-04-08T09:58:49.860Z,98721.23
2018-04-08T10:01:25.171Z,98724.70
2018-04-08T10:03:55.444Z,98713.71
2018-04-08T10:06:25.055Z,98705.63
2018-04-08T10:08:53.842Z,98703.20
2018-04-08T10:11:22.621Z,98700.38
2018-04-08T10:13:51.649Z,98707.75
2018-04-08T10:16:20.407Z,98698.98
2018-04-08T10:18:50.002Z,98702.73
2018-04-08T10:21:18.735Z,98702.98
2018-04-08T10:23:47.505Z,98696.77
2018-04-08T10:26:16.856Z,98685.05
2018-04-08T10:28:46.887Z,98686.55
2018-04-08T10:31:15.508Z,98696.91
2018-04-08T10:33:44.178Z,98697.37
2018-04-08T10:36:12.878Z,98689.82
2018-04-08T10:38:41.572Z,98684.66
2018-04-08T10:41:10.410Z,98685.88
2018-04-08T10:43:39.089Z,98684.56
2018-04-08T10:46:07.693Z,98674.02
2018-04-08T10:48:36.316Z,98680.83
2018-04-08T10:51:04.961Z,98688.53
2018-04-08T10:53:33.581Z,98672.33
2018-04-08T10:56:02.292Z,98672.05
2018-04-08T10:58:31.394Z,98673.38
2018-04-08T11:01:00.624Z,98675.84
2018-04-08T11:03:29.460Z,98672.67
2018-04-08T11:05:59.219Z,98665.18
2018-04-08T11:08:27.870Z,98662.77
2018-04-08T11:10:56.539Z,98653.54
2018-04-08T11:13:25.970Z,98653.86
2018-04-08T11:15:55.628Z,98640.00
2018-04-08T11:18:25.335Z,98648.95
2018-04-08T11:20:54.036Z,98638.59
2018-04-08T11:23:22.741Z,98634.00
2018-04-08T11:25:52.672Z,98632.47
2018-04-08T11:28:22.024Z,98651.91
2018-04-08T11:30:50.950Z,98637.55
2018-04-08T11:33:19.562Z,98632.50
2018-04-08T11:35:48.281Z,98621.48
2018-04-08T11:38:17.703Z,98619.20
2018-04-08T11:40:47.070Z,98613.57
2018-04-08T11:43:15.842Z,98613.66
2018-04-08T11:45:46.158Z,98605.15
2018-04-08T11:48:14.769Z,98596.64
2018-04-08T11:50:43.401Z,98588.45
2018-04-08T11:53:12.177Z,98582.48
2018-04-08T11:55:40.974Z,98576.25
2018-04-08T11:58:10.240Z,98569.33
2018-04-08T12:00:40.624Z,98571.89
2018-04-08T12:03:09.603Z,98567.21
2018-04-08T12:05:38.446Z,98564.08
2018-04-08T12:08:07.013Z,98554.22
2018-04-08T12:10:36.646Z,98553.53
2018-04-08T12:13:05.380Z,98543.83
2018-04-08T12:15:34.029Z,98547.38
2018-04-08T12:18:03.922Z,98549.26
2018-04-08T12:20:32.553Z,98538.77
2018-04-08T12:23:01.481Z,98538.17
2018-04-08T12:25:31.080Z,98535.81
2018-04-08T12:28:00.274Z,98532.34
2018-04-08T12:30:29.845Z,98522.30
2018-04-08T12:32:58.992Z,98526.81
2018-04-08T12:35:27.873Z,98523.01
2018-04-08T12:37:56.504Z,98517.75
2018-04-08T12:40:26.815Z,98510.52
2018-04-08T12:42:55.785Z,98512.92
2018-04-08T12:45:24.636Z,98504.35
2018-04-08T12:47:53.398Z,98517.94
2018-04-08T12:50:22.266Z,98504.41
2018-04-08T12:52:51.144Z,98502.11
2018-04-08T12:55:19.824Z,98498.95
2018-04-08T12:57:48.954Z,98491.06
2018-04-08T13:00:18.203Z,98485.13
2018-04-08T13:02:47.497Z,98485.85
2018-04-08T13:05:16.535Z,98481.00
2018-04-08T13:07:45.287Z,98477.53
2018-04-08T13:10:14.042Z,98482.22
2018-04-08T13:12:44.120Z,98471.14
2018-04-08T13:15:12.849Z,98465.25
2018-04-08T13:17:42.161Z,98467.98
2018-04-08T13:20:10.962Z,98453.87
2018-04-08T13:22:39.655Z,98457.33
2018-04-08T13:25:08.426Z,98450.77
2018-04-08T13:27:37.155Z,98455.09
2018-04-08T13:30:06.364Z,98450.47
2018-04-08T13:32:35.409Z,98456.45
2018-04-08T13:35:04.159Z,98448.84
2018-04-08T13:37:33.572Z,98440.75
2018-04-08T13:40:02.234Z,98435.39
2018-04-08T13:42:30.849Z,98423.08
2018-04-08T13:44:59.682Z,98425.02
2018-04-08T13:47:28.340Z,98417.45
2018-04-08T13:49:57.047Z,98420.63
2018-04-08T13:52:25.760Z,98419.73
2018-04-08T13:54:54.526Z,98414.88
2018-04-08T13:57:23.947Z,98406.20
2018-04-08T13:59:54.669Z,98406.88
2018-04-08T14:02:23.561Z,98400.92
2018-04-08T14:04:52.547Z,98396.88
2018-04-08T14:07:21.158Z,98395.28
2018-04-08T14:09:49.862Z,98390.76
2018-04-08T14:12:19.298Z,98378.36
2018-04-08T14:14:48.000Z,98372.33
2018-04-08T14:17:17.632Z,98366.95
2018-04-08T14:19:46.291Z,98369.66
2018-04-08T14:22:14.924Z,98362.39
2018-04-08T14:24:44.360Z,98354.78
2018-04-08T14:27:13.695Z,98340.52
2018-04-08T14:29:42.425Z,98341.76
2018-04-08T14:32:11.460Z,98341.81
2018-04-08T14:34:40.760Z,98339.13
2018-04-08T14:37:09.736Z,98333.16
2018-04-08T14:39:38.285Z,98329.30
2018-04-08T14:42:07.010Z,98323.38
2018-04-08T14:44:35.655Z,98327.07
2018-04-08T14:47:05.216Z,98332.86
2018-04-08T14:49:34.986Z,98332.33
2018-04-08T14:52:03.620Z,98331.86
2018-04-08T14:54:32.982Z,98322.77
2018-04-08T14:57:01.894Z,98318.98
2018-04-08T14:59:30.760Z,98308.77
2018-04-08T15:02:00.626Z,98319.86
2018-04-08T15:04:29.924Z,98316.21
2018-04-08T15:06:58.892Z,98317.19
2018-04-08T15:09:27.799Z,98314.99
2018-04-08T15:11:56.787Z,98309.14
2018-04-08T15:14:25.908Z,98311.09
2018-04-08T15:16:55.306Z,98302.03
2018-04-08T15:19:24.254Z,98286.39
2018-04-08T15:21:53.338Z,98277.47
2018-04-08T15:24:22.576Z,98261.67
2018-04-08T15:26:51.518Z,98241.97
2018-04-08T15:29:20.478Z,98238.82
2018-04-08T15:31:50.381Z,98226.84
2018-04-08T15:34:21.071Z,98219.70
2018-04-08T15:36:50.174Z,98202.30
2018-04-08T15:39:19.160Z,98189.56
2018-04-08T15:41:48.158Z,98194.48
2018-04-08T15:44:17.320Z,98198.20
2018-04-08T15:46:46.668Z,98199.43
2018-04-08T15:49:16.383Z,98206.77
2018-04-08T15:51:45.477Z,98210.80
2018-04-08T15:54:15.301Z,98214.88
2018-04-08T15:56:45.417Z,98220.99
2018-04-08T15:59:15.054Z,98218.95
2018-04-08T16:01:44.425Z,98222.03
2018-04-08T16:04:13.593Z,98218.86
2018-04-08T16:06:43.237Z,98218.08
2018-04-08T16:09:13.370Z,98223.12
2018-04-08T16:11:42.402Z,98216.28
2018-04-08T16:14:12.281Z,98221.11
2018-04-08T16:16:41.709Z,98217.01
2018-04-08T16:19:10.841Z,98225.70
2018-04-08T16:21:39.975Z,98229.06
2018-04-08T16:24:09.500Z,98240.00
2018-04-08T16:26:40.256Z,98245.69
2018-04-08T16:29:09.469Z,98251.73
2018-04-08T16:31:38.731Z,98251.48
2018-04-08T16:34:08.181Z,98252.11
2018-04-08T16:36:37.246Z,98250.08
2018-04-08T16:39:06.546Z,98252.84
2018-04-08T16:41:35.991Z,98247.54
2018-04-08T16:44:05.045Z,98258.43
2018-04-08T16:46:34.206Z,98269.28
2018-04-08T16:49:03.552Z,98262.96
2018-04-08T16:51:32.963Z,98268.36
2018-04-08T16:54:03.733Z,98267.19
2018-04-08T16:56:33.396Z,98268.67
2018-04-08T16:59:02.566Z,98279.02
2018-04-08T17:01:32.496Z,98278.66
2018-04-08T17:04:01.541Z,98281.28
2018-04-08T17:06:30.623Z,98286.56
2018-04-08T17:08:59.847Z,98282.36
2018-04-08T17:11:28.981Z,98273.82
2018-04-08T17:13:58.794Z,98275.59
2018-04-08T17:16:27.985Z,98264.23
2018-04-08T17:18:58.942Z,98257.66
2018-04-08T17:21:28.761Z,98270.70
2018-04-08T17:23:57.834Z,98277.50
2018-04-08T17:26:26.831Z,98275.44
2018-04-08T17:28:56.097Z,98269.05
2018-04-08T17:31:25.616Z,98274.45
2018-04-08T17:33:54.726Z,98270.10
2018-04-08T17:36:23.729Z,98277.09
2018-04-08T17:38:54.679Z,98285.43
2018-04-08T17:41:24.550Z,98285.87
2018-04-08T17:43:54.336Z,98282.97
2018-04-08T17:46:24.996Z,98284.27
2018-04-08T17:48:54.090Z,98285.47
2018-04-08T17:51:23.072Z,98285.41
2018-04-08T17:53:53.365Z,98286.55
2018-04-08T17:56:22.340Z,98290.54
2018-04-08T17:58:51.615Z,98295.13
2018-04-08T18:01:21.422Z,98292.52
2018-04-08T18:03:50.503Z,98303.79
2018-04-08T18:06:19.799Z,98297.69
2018-04-08T18:08:48.915Z,98302.83
2018-04-08T18:11:19.226Z,98307.53
2018-04-08T18:13:49.983Z,98315.70
2018-04-08T18:16:20.153Z,98311.05
2018-04-08T18:18:49.157Z,98308.03
2018-04-08T18:21:20.018Z,98300.89
2018-04-08T18:23:50.113Z,98298.29
2018-04-08T18:26:19.340Z,98301.64
2018-04-08T18:28:48.401Z,98298.84
2018-04-08T18:31:17.644Z,98294.23
2018-04-08T18:33:47.101Z,98297.94
2018-04-08T18:36:17.068Z,98290.83
2018-04-08T18:38:46.683Z,98287.25
2018-04-08T18:41:17.230Z,98283.20
2018-04-08T18:43:48.076Z,98276.45
2018-04-08T18:46:17.346Z,98272.94
2018-04-08T18:48:46.836Z,98268.56
2018-04-08T18:51:17.095Z,98260.12
2018-04-08T18:53:46.142Z,98265.41
2018-04-08T18:56:15.875Z,98265.41
2018-04-08T18:58:45.456Z,98266.44
2018-04-08T19:01:14.928Z,98257.61
2018-04-08T19:03:45.476Z,98252.92
2018-04-08T19:06:14.764Z,98253.98
2018-04-08T19:08:43.831Z,98256.76
2018-04-08T19:11:12.961Z,98254.45
2018-04-08T19:13:42.761Z,98252.95
2018-04-08T19:16:11.996Z,98241.79
2018-04-08T19:18:44.709Z,98229.61
2018-04-08T19:21:13.792Z,98224.33
2018-04-08T19:23:44.167Z,98221.69
2018-04-08T19:26:14.058Z,98229.23
2018-04-08T19:28:44.389Z,98227.95
2018-04-08T19:31:13.568Z,98217.83
2018-04-08T19:33:42.554Z,98220.72
2018-04-08T19:36:11.680Z,98202.72
2018-04-08T19:38:40.988Z,98196.73
2018-04-08T19:41:10.593Z,98201.50
2018-04-08T19:43:39.663Z,98208.75
2018-04-08T19:46:21.722Z,98211.55
2018-04-08T19:49:03.623Z,98208.50
2018-04-08T19:51:33.437Z,98207.67
2018-04-08T19:54:03.026Z,98206.86
2018-04-08T19:56:34.007Z,98213.06
2018-04-08T19:59:04.633Z,98205.39
2018-04-08T20:01:35.103Z,98200.13
2018-04-08T20:04:04.269Z,98199.55
2018-04-08T20:06:34.772Z,98195.62
2018-04-08T20:09:05.515Z,98198.64
2018-04-08T20:11:35.305Z,98200.69
2018-04-08T20:14:05.790Z,98187.14
2018-04-08T20:16:35.691Z,98185.02
2018-04-08T20:19:05.448Z,98183.01
2018-04-08T20:21:34.835Z,98173.67
2018-04-08T20:24:04.853Z,98174.75
2018-04-08T20:26:34.456Z,98175.30
2018-04-08T20:29:05.004Z,98176.31
2018-04-08T20:31:34.126Z,98179.77
2018-04-08T20:34:03.835Z,98180.02
2018-04-08T20:36:32.845Z,98180.62
2018-04-08T20:39:02.625Z,98171.91
2018-04-08T20:41:31.703Z,98158.83
2018-04-08T20:44:02.543Z,98157.00
2018-04-08T20:46:31.631Z,98163.58
2018-04-08T20:49:02.140Z,98158.45
2018-04-08T20:51:33.203Z,98160.80
2018-04-08T20:54:02.508Z,98162.98
2018-04-08T20:56:31.594Z,98158.90
2018-04-08T20:59:00.610Z,98155.74
2018-04-08T21:01:31.030Z,98158.26
2018-04-08T21:04:00.791Z,98157.02
2018-04-08T21:06:29.857Z,98164.09
2018-04-08T21:08:58.806Z,98165.16
2018-04-08T21:11:27.868Z,98161.61
2018-04-08T21:13:58.053Z,98159.62
2018-04-08T21:16:27.421Z,98167.13
2018-04-08T21:18:57.192Z,98168.13
2018-04-08T21:21:26.063Z,98177.30
2018-04-08T21:23:55.718Z,98173.96
2018-04-08T21:26:24.737Z,98188.09
2018-04-08T21:28:53.837Z,98174.16
2018-04-08T21:31:22.809Z,98163.20
2018-04-08T21:33:51.806Z,98156.86
2018-04-08T21:36:21.846Z,98146.22
2018-04-08T21:38:50.817Z,98133.16
2018-04-08T21:41:20.542Z,98116.34
2018-04-08T21:43:50.237Z,98111.16
2018-04-08T21:46:19.597Z,98111.80
2018-04-08T21:48:48.750Z,98130.70
2018-04-08T21:51:17.961Z,98143.15
2018-04-08T21:53:46.771Z,98145.45
2018-04-08T21:56:15.539Z,98140.58
2018-04-08T21:58:45.023Z,98139.56
2018-04-08T22:01:15.886Z,98138.12
2018-04-08T22:03:44.631Z,98135.77
2018-04-08T22:06:14.107Z,98137.87
2018-04-08T22:08:44.052Z,98128.45
2018-04-08T22:11:13.335Z,98123.64
2018-04-08T22:13:42.775Z,98106.30
2018-04-08T22:16:11.737Z,98109.12
2018-04-08T22:18:40.456Z,98120.64
2018-04-08T22:21:09.866Z,98127.81
2018-04-08T22:23:38.527Z,98131.09
2018-04-08T22:26:07.751Z,98145.00
2018-04-08T22:28:36.559Z,98154.52
2018-04-08T22:31:05.305Z,98156.61
2018-04-08T22:33:33.944Z,98161.70
2018-04-08T22:36:03.367Z,98161.80
2018-04-08T22:38:32.899Z,98156.41
2018-04-08T22:41:01.775Z,98157.56
2018-04-08T22:43:30.972Z,98161.95
2018-04-08T22:46:00.132Z,98169.52
2018-04-08T22:48:29.609Z,98177.23
2018-04-08T22:50:58.354Z,98180.50
2018-04-08T22:53:27.129Z,98182.22
2018-04-08T22:55:55.902Z,98187.97
2018-04-08T22:58:24.493Z,98188.02
2018-04-08T23:00:53.962Z,98168.19
2018-04-08T23:03:22.710Z,98140.67
2018-04-08T23:05:51.716Z,98131.34
2018-04-08T23:08:20.282Z,98116.83
2018-04-08T23:10:48.962Z,98081.95
2018-04-08T23:13:18.843Z,98102.95
2018-04-08T23:15:48.195Z,98137.50
2018-04-08T23:18:17.628Z,98165.15
2018-04-08T23:20:47.046Z,98176.95
2018-04-08T23:23:15.720Z,98175.39
2018-04-08T23:25:44.424Z,98165.75
2018-04-08T23:28:13.180Z,98147.13
2018-04-08T23:30:42.653Z,98115.66
2018-04-08T23:33:11.324Z,98102.37
2018-04-08T23:35:40.006Z,98096.70
2018-04-08T23:38:08.615Z,98095.00
2018-04-08T23:40:37.985Z,98079.41
2018-04-08T23:43:06.915Z,98083.88
2018-04-08T23:45:36.842Z,98070.27
2018-04-08T23:48:05.485Z,98059.36
2018-04-08T23:50:34.058Z,98050.44
2018-04-08T23:53:02.701Z,98053.12
2018-04-08T23:55:32.090Z,98058.72
2018-04-08T23:58:00.766Z,98065.17
